»·PEaware :: FDX1989 KLAS-KDEN

FDX1989 :: KLAS-KDEN

FLIGHT INFORMATION

Flight Status: Arrived
Operator:
Federal Express
More flights by this operator :: More flights under this callsign
Pilot: John L. (29598)
Aircraft: Unknown
(B77L)
More flights by this aircraft type
Origin: KLAS McCarran Intl
United States
Destination: KDEN Denver Intl
United States
More flights between these airports :: More routes between these airports
Route: GIDGT1 TUKRR BUMMP SSKII2
File this flight plan on PilotEdge
Remarks:
Altitude:
(Current/Filed)
33,000ft
Speed:
(Current/Filed)
480kts
Departed: 07-Apr-21 04:47 PM
Arrived: 07-Apr-21 06:06 PM
Distance/Time
Traveled:
544nm/1:19
Distance/Time
To Go:
Arrived

Flight Plot

Page will automatically refresh every two minutes.

Flight plan parsing failed; only flown route is shown


Map Options




Map Legend


Flown Route
Filed Route
Departure Airport
Arrival Airport
Navaid (VOR, NDB)
Fix

Horizontal Profiles

Position Reports

Time Latitude Longitude Heading Altitude Ground
Speed
07-Apr-21 16:06 36.081275 -115.126954 90 2194ft 0kts
07-Apr-21 16:07 36.081275 -115.126954 90 2194ft 0kts
07-Apr-21 16:08 36.081275 -115.126954 90 2194ft 0kts
07-Apr-21 16:09 36.081275 -115.126954 90 2194ft 0kts
07-Apr-21 16:10 36.081275 -115.126954 90 2194ft 0kts
07-Apr-21 16:11 36.081275 -115.126954 90 2194ft 0kts
07-Apr-21 16:12 36.081275 -115.126954 90 2194ft 0kts
07-Apr-21 16:13 36.081275 -115.126954 90 2194ft 0kts
07-Apr-21 16:14 36.081275 -115.126954 90 2194ft 0kts
07-Apr-21 16:15 36.081275 -115.126954 90 2194ft 0kts
07-Apr-21 16:16 36.081275 -115.126954 90 2194ft 0kts
07-Apr-21 16:17 36.081275 -115.126954 90 2194ft 0kts
07-Apr-21 16:18 36.081275 -115.126954 90 2194ft 0kts
07-Apr-21 16:19 36.081275 -115.126954 90 2194ft 0kts
07-Apr-21 16:20 36.081275 -115.126954 90 2194ft 0kts
07-Apr-21 16:21 36.081275 -115.126954 90 2194ft 0kts
07-Apr-21 16:22 36.081275 -115.126954 90 2194ft 0kts
07-Apr-21 16:23 36.081275 -115.126954 90 2194ft 0kts
07-Apr-21 16:24 36.081275 -115.126954 90 2194ft 0kts
07-Apr-21 16:25 36.081275 -115.126954 90 2194ft 0kts
07-Apr-21 16:26 36.081275 -115.126954 90 2194ft 0kts
07-Apr-21 16:27 36.081275 -115.126954 90 2194ft 0kts
07-Apr-21 16:28 36.081275 -115.126954 90 2194ft 0kts
07-Apr-21 16:29 36.081275 -115.126954 90 2194ft 0kts
07-Apr-21 16:30 36.081275 -115.126954 90 2194ft 0kts
07-Apr-21 16:31 36.081275 -115.126954 90 2194ft 0kts
07-Apr-21 16:32 36.081275 -115.126954 90 2194ft 0kts
07-Apr-21 16:33 36.081275 -115.126954 90 2194ft 0kts
07-Apr-21 16:34 36.081275 -115.126954 90 2194ft 0kts
07-Apr-21 16:35 36.081275 -115.126954 90 2194ft 0kts
07-Apr-21 16:36 36.081275 -115.126954 90 2194ft 0kts
07-Apr-21 16:37 36.081275 -115.126954 90 2194ft 0kts
07-Apr-21 16:38 36.081212 -115.126492 131 2194ft 2kts
07-Apr-21 16:39 36.081090 -115.126429 166 2194ft 0kts
07-Apr-21 16:40 36.081090 -115.126429 166 2194ft 0kts
07-Apr-21 16:41 36.078669 -115.126362 181 2194ft 11kts
07-Apr-21 16:42 36.078298 -115.123113 89 2194ft 9kts
07-Apr-21 16:43 36.077560 -115.121539 129 2194ft 0kts
07-Apr-21 16:44 36.077560 -115.121539 129 2194ft 0kts
07-Apr-21 16:45 36.076458 -115.121514 262 2194ft 5kts
07-Apr-21 16:46 36.076401 -115.156384 270 2469ft 191kts
07-Apr-21 16:47 36.077284 -115.226244 270 4582ft 231kts
07-Apr-21 16:48 36.104458 -115.295317 338 6851ft 267kts
07-Apr-21 16:49 36.169697 -115.266772 50 9522ft 283kts
07-Apr-21 16:50 36.195306 -115.165897 86 11239ft 346kts
07-Apr-21 16:51 36.196553 -115.034146 90 13222ft 410kts
07-Apr-21 16:52 36.196369 -114.887402 90 16159ft 439kts
07-Apr-21 16:53 36.195895 -114.731811 89 18863ft 464kts
07-Apr-21 16:54 36.195808 -114.568461 89 21508ft 484kts
07-Apr-21 16:55 36.195086 -114.398579 89 23915ft 502kts
07-Apr-21 16:56 36.196272 -114.223087 84 26128ft 519kts
07-Apr-21 16:57 36.216898 -114.043356 78 28148ft 535kts
07-Apr-21 16:58 36.239015 -113.858775 79 30304ft 542kts
07-Apr-21 16:59 36.261004 -113.674033 79 32377ft 544kts
07-Apr-21 17:00 36.282742 -113.488042 79 33120ft 546kts
07-Apr-21 17:01 36.303615 -113.301146 79 33127ft 546kts
07-Apr-21 17:02 36.347010 -113.123450 62 33135ft 538kts
07-Apr-21 17:03 36.406824 -112.954329 61 33155ft 534kts
07-Apr-21 17:04 36.466017 -112.785293 60 33158ft 533kts
07-Apr-21 17:05 36.525299 -112.616079 61 33159ft 534kts
07-Apr-21 17:06 36.583827 -112.446904 61 33149ft 533kts
07-Apr-21 17:07 36.642253 -112.277003 61 33144ft 533kts
07-Apr-21 17:08 36.700352 -112.107095 61 33138ft 533kts
07-Apr-21 17:09 36.758319 -111.937684 61 33118ft 532kts
07-Apr-21 17:10 36.815608 -111.767479 61 33097ft 530kts
07-Apr-21 17:11 36.876901 -111.600572 54 33076ft 527kts
07-Apr-21 17:12 36.952402 -111.445379 52 33069ft 522kts
07-Apr-21 17:13 37.026536 -111.289338 52 33073ft 522kts
07-Apr-21 17:14 37.101043 -111.132954 53 33080ft 522kts
07-Apr-21 17:15 37.174470 -110.976824 53 33088ft 521kts
07-Apr-21 17:16 37.247890 -110.819765 53 33094ft 520kts
07-Apr-21 17:17 37.321018 -110.662559 53 33093ft 526kts
07-Apr-21 17:18 37.394928 -110.502900 53 33113ft 531kts
07-Apr-21 17:19 37.468863 -110.342407 53 33130ft 529kts
07-Apr-21 17:20 37.542288 -110.182237 53 33147ft 528kts
07-Apr-21 17:21 37.615371 -110.022026 53 33156ft 527kts
07-Apr-21 17:22 37.688293 -109.861375 53 33172ft 527kts
07-Apr-21 17:23 37.760811 -109.700821 53 33187ft 527kts
07-Apr-21 17:24 37.833128 -109.539914 53 33189ft 526kts
07-Apr-21 17:25 37.905221 -109.378698 53 33183ft 526kts
07-Apr-21 17:26 37.977234 -109.217711 53 33174ft 525kts
07-Apr-21 17:27 38.048644 -109.055852 53 33150ft 525kts
07-Apr-21 17:28 38.119211 -108.893620 55 33140ft 525kts
07-Apr-21 17:29 38.183671 -108.725994 56 33174ft 527kts
07-Apr-21 17:30 38.248358 -108.559367 56 33192ft 526kts
07-Apr-21 17:31 38.313787 -108.392501 56 33171ft 525kts
07-Apr-21 17:32 38.378591 -108.225762 56 33162ft 525kts
07-Apr-21 17:33 38.442490 -108.058891 56 33149ft 525kts
07-Apr-21 17:34 38.506192 -107.890748 57 33140ft 525kts
07-Apr-21 17:35 38.569648 -107.723388 57 33137ft 524kts
07-Apr-21 17:36 38.632329 -107.555236 57 33140ft 524kts
07-Apr-21 17:37 38.695560 -107.386921 56 33148ft 524kts
07-Apr-21 17:38 38.758689 -107.218997 57 33162ft 522kts
07-Apr-21 17:39 38.821648 -107.051429 56 33161ft 521kts
07-Apr-21 17:40 38.884673 -106.884481 56 33160ft 520kts
07-Apr-21 17:41 38.946593 -106.717060 56 32899ft 512kts
07-Apr-21 17:42 39.006140 -106.555203 56 31420ft 493kts
07-Apr-21 17:43 39.064168 -106.397493 57 29724ft 481kts
07-Apr-21 17:44 39.119719 -106.244027 57 28117ft 465kts
07-Apr-21 17:45 39.173395 -106.095487 57 26457ft 452kts
07-Apr-21 17:46 39.225930 -105.951008 57 24940ft 435kts
07-Apr-21 17:47 39.275797 -105.811412 58 23365ft 422kts
07-Apr-21 17:48 39.324010 -105.676011 59 21768ft 410kts
07-Apr-21 17:49 39.372100 -105.544549 58 20155ft 399kts
07-Apr-21 17:50 39.412496 -105.418625 73 19308ft 365kts
07-Apr-21 17:51 39.418368 -105.289777 85 17832ft 355kts
07-Apr-21 17:52 39.418463 -105.163888 86 16218ft 345kts
07-Apr-21 17:53 39.418732 -105.041883 85 14837ft 323kts
07-Apr-21 17:54 39.419432 -104.933583 81 13875ft 285kts
07-Apr-21 17:55 39.428790 -104.834167 78 12611ft 275kts
07-Apr-21 17:56 39.441362 -104.738823 64 11335ft 261kts
07-Apr-21 17:57 39.484673 -104.677633 7 11028ft 236kts
07-Apr-21 17:59 39.545920 -104.663975 358 10851ft 211kts
07-Apr-21 18:00 39.602798 -104.663118 357 9782ft 198kts
07-Apr-21 18:01 39.655823 -104.662524 358 8763ft 175kts
07-Apr-21 18:02 39.704764 -104.661963 357 7825ft 179kts
07-Apr-21 18:03 39.751903 -104.661419 357 6919ft 166kts
07-Apr-21 18:04 39.798656 -104.660829 359 6037ft 165kts
07-Apr-21 18:05 39.843570 -104.660386 0 5448ft 135kts
07-Apr-21 18:06 39.853267 -104.661756 329 5447ft 0kts
07-Apr-21 18:07 39.853328 -104.661803 329 5447ft 0kts
07-Apr-21 18:08 39.852611 -104.662393 180 5447ft 11kts
07-Apr-21 18:09 39.848488 -104.662448 180 5447ft 17kts
07-Apr-21 18:10 39.842509 -104.662505 179 5447ft 23kts
07-Apr-21 18:11 39.836606 -104.662578 179 5447ft 19kts
07-Apr-21 18:12 39.831776 -104.662632 179 5447ft 15kts
07-Apr-21 18:13 39.829293 -104.664253 270 5447ft 12kts
07-Apr-21 18:14 39.829325 -104.669208 270 5447ft 12kts
07-Apr-21 18:15 39.830055 -104.673230 279 5447ft 10kts
07-Apr-21 18:16 39.829821 -104.676520 210 5447ft 6kts
07-Apr-21 18:17 39.829358 -104.676636 179 5447ft 0kts
07-Apr-21 18:18 39.829358 -104.676636 179 5447ft 0kts
07-Apr-21 18:19 39.829358 -104.676636 179 5447ft 0kts
07-Apr-21 18:20 39.829358 -104.676636 179 5447ft 0kts

Navigation Log

Ident Type
Flight plan parsing failed, navigation log unavailable